This is the latest recevied weather packets stored in our database for station/object W6DSP. If no packets are shown the sender has not sent any weather packets the latest 10 day(s).
| Time | Temp. | Humidity | Pressure | Rain* | Wind** | Luminosity | Snow |
|---|---|---|---|---|---|---|---|
| 1788446975 | 30° C | 72% | 1014.7 hPa | 0 mm | - | - | - |
| 1788445533 | 29.44° C | 76% | 1014.7 hPa | 0 mm | - | - | - |
| 1788443333 | 27.78° C | 78% | 1014.7 hPa | 0 mm | - | - | - |
| 1788442618 | 27.22° C | 80% | 1014.6 hPa | 0 mm | - | - | - |
| 1788439713 | 25° C | 89% | 1015.1 hPa | 0 mm | - | - | - |
| 1788439010 | 23.89° C | 92% | 1015.2 hPa | 0 mm | - | - | - |
| 1788436860 | 22.78° C | 92% | 1015.1 hPa | 0 mm | - | - | - |
| 1788434002 | 22.78° C | 92% | 1015 hPa | 0 mm | - | - | - |
| 1788431786 | 22.78° C | 92% | 1014.7 hPa | 0 mm | - | - | - |
| 1788430299 | 22.78° C | 92% | 1014.7 hPa | 0 mm | - | - | - |
| 1788429603 | 22.78° C | 92% | 1014.5 hPa | 0 mm | - | - | - |
| 1788428878 | 22.78° C | 92% | 1014.6 hPa | 0 mm | - | - | - |
| 1788428153 | 23.33° C | 91% | 1014.6 hPa | 0 mm | - | - | - |
| 1788427404 | 23.33° C | 91% | 1014.6 hPa | 0 mm | - | - | - |
| 1788424521 | 23.89° C | 90% | 1014.4 hPa | 0 mm | - | - | - |
| 1788421630 | 25° C | 86% | 1014.2 hPa | 0 mm | - | - | - |
| 1788420145 | 25.56° C | 85% | 1014 hPa | 0 mm | - | - | - |
| 1788418692 | 25.56° C | 86% | 1014 hPa | 0 mm | - | - | - |
| 1788416476 | 25.56° C | 86% | 1014.2 hPa | 0 mm | - | - | - |
| 1788415761 | 25.56° C | 85% | 1014.2 hPa | 0 mm | - | - | - |
| 1788415010 | 26.11° C | 85% | 1014.3 hPa | 0 mm | - | - | - |
| 1788412096 | 25.56° C | 88% | 1013.9 hPa | 0 mm | - | - | - |
| 1788409944 | 25° C | 90% | 1013.7 hPa | 0 mm | - | - | - |
| 1788406331 | 25.56° C | 89% | 1013.9 hPa | 0 mm | - | - | - |
| 1788405593 | 25.56° C | 89% | 1014 hPa | 0 mm | - | - | - |
* Rain latest hour (hover to see other rain measurements)
** Current wind speed in m/s (hover to see current wind gust speed)